createdAt,value
2023-01-23T00:00:32.463Z,0
2023-01-23T00:01:32.451Z,0
2023-01-23T00:02:32.512Z,0
2023-01-23T00:03:32.411Z,0
2023-01-23T00:04:32.415Z,0
2023-01-23T00:05:32.488Z,0
2023-01-23T00:06:32.458Z,0
2023-01-23T00:07:32.418Z,0
2023-01-23T00:08:33.784Z,0
2023-01-23T00:09:37.672Z,0
2023-01-23T00:10:41.635Z,0
2023-01-23T00:11:45.666Z,0
2023-01-23T00:12:49.631Z,0
2023-01-23T00:13:53.686Z,0
2023-01-23T00:14:57.669Z,0
2023-01-23T00:16:01.727Z,0
2023-01-23T00:17:05.658Z,0
2023-01-23T00:18:09.708Z,0
2023-01-23T00:19:13.646Z,0
2023-01-23T00:20:17.936Z,0
2023-01-23T00:21:21.638Z,0
2023-01-23T00:22:25.669Z,0
2023-01-23T00:23:29.723Z,0
2023-01-23T00:24:31.445Z,0
2023-01-23T00:25:31.427Z,0
2023-01-23T00:26:31.420Z,0
2023-01-23T00:27:31.418Z,0
2023-01-23T00:28:31.409Z,0
2023-01-23T00:29:31.458Z,0
2023-01-23T00:30:31.647Z,0
2023-01-23T00:31:31.609Z,0
2023-01-23T00:32:31.440Z,0
2023-01-23T00:33:31.395Z,0
2023-01-23T00:34:31.452Z,0
2023-01-23T00:35:31.422Z,0
2023-01-23T00:36:31.409Z,0
2023-01-23T00:37:31.410Z,0
2023-01-23T00:38:31.427Z,0
2023-01-23T00:39:31.432Z,0
2023-01-23T00:40:31.438Z,0
2023-01-23T00:41:31.424Z,0
2023-01-23T00:42:31.427Z,0
2023-01-23T00:43:31.411Z,0
2023-01-23T00:44:31.434Z,0
2023-01-23T00:45:31.414Z,0
2023-01-23T00:46:31.507Z,0
2023-01-23T00:47:31.408Z,0
2023-01-23T00:48:31.427Z,0
2023-01-23T00:49:31.449Z,0
2023-01-23T00:50:31.456Z,0
2023-01-23T00:51:31.423Z,0
2023-01-23T00:52:31.451Z,0
2023-01-23T00:53:31.435Z,0
2023-01-23T00:54:31.429Z,0
2023-01-23T00:55:31.414Z,0
2023-01-23T00:56:31.420Z,0
2023-01-23T00:57:31.412Z,0
2023-01-23T00:58:31.437Z,0
2023-01-23T00:59:31.442Z,0
2023-01-23T01:00:31.451Z,0
2023-01-23T01:01:31.624Z,0
2023-01-23T01:02:31.522Z,0
2023-01-23T01:03:31.382Z,0
2023-01-23T01:04:31.427Z,0
2023-01-23T01:05:31.419Z,0
2023-01-23T01:06:31.433Z,0
2023-01-23T01:07:31.411Z,0
2023-01-23T01:08:31.434Z,0
2023-01-23T01:09:31.402Z,0
2023-01-23T01:10:31.497Z,0
2023-01-23T01:11:31.410Z,0
2023-01-23T01:12:31.388Z,0
2023-01-23T01:13:31.450Z,0
2023-01-23T01:14:31.420Z,0
2023-01-23T01:15:31.524Z,0
2023-01-23T01:16:31.521Z,0
2023-01-23T01:17:31.432Z,0
2023-01-23T01:18:31.414Z,0
2023-01-23T01:19:31.469Z,0
2023-01-23T01:20:31.400Z,0
2023-01-23T01:21:31.416Z,0
2023-01-23T01:22:31.393Z,0
2023-01-23T01:23:31.408Z,0
2023-01-23T01:24:31.409Z,0
2023-01-23T01:25:31.432Z,0
2023-01-23T01:26:31.411Z,0
2023-01-23T01:27:31.466Z,0
2023-01-23T01:28:31.434Z,0
2023-01-23T01:29:31.452Z,0
2023-01-23T01:30:31.410Z,0
2023-01-23T01:31:31.826Z,0
2023-01-23T01:32:31.397Z,0
2023-01-23T01:33:31.439Z,0
2023-01-23T01:34:31.454Z,0
2023-01-23T01:35:31.420Z,0
2023-01-23T01:36:31.414Z,0
2023-01-23T01:37:31.476Z,0
2023-01-23T01:38:31.404Z,0
2023-01-23T01:39:31.439Z,0
2023-01-23T01:40:31.515Z,0
2023-01-23T01:41:31.591Z,0
2023-01-23T01:42:31.540Z,0
2023-01-23T01:43:31.611Z,0
2023-01-23T01:44:31.581Z,0
2023-01-23T01:45:31.550Z,0
2023-01-23T01:46:31.554Z,0
2023-01-23T01:47:31.601Z,0
2023-01-23T01:48:31.576Z,0
2023-01-23T01:49:31.559Z,0
2023-01-23T01:50:31.574Z,0
2023-01-23T01:51:31.577Z,0
2023-01-23T01:52:31.529Z,0
2023-01-23T01:53:31.575Z,0
2023-01-23T01:54:31.506Z,0
2023-01-23T01:55:31.576Z,0
2023-01-23T01:56:31.417Z,0
2023-01-23T01:57:31.492Z,0
2023-01-23T01:58:31.444Z,0
2023-01-23T01:59:31.474Z,0
2023-01-23T02:00:31.448Z,0
2023-01-23T02:01:31.449Z,0
2023-01-23T02:02:31.414Z,0
2023-01-23T02:03:31.440Z,0
2023-01-23T02:04:31.497Z,0
2023-01-23T02:05:31.412Z,0
2023-01-23T02:06:31.405Z,0
2023-01-23T02:07:31.431Z,0
2023-01-23T02:08:31.400Z,0
2023-01-23T02:09:31.474Z,0
2023-01-23T02:10:31.406Z,0
2023-01-23T02:11:31.417Z,0
2023-01-23T02:12:31.398Z,0
2023-01-23T02:13:31.453Z,0
2023-01-23T02:14:31.421Z,0
2023-01-23T02:15:31.420Z,0
2023-01-23T02:16:31.507Z,0
2023-01-23T02:17:31.460Z,0
2023-01-23T02:18:32.443Z,0
2023-01-23T02:19:31.416Z,0
2023-01-23T02:20:31.445Z,0
2023-01-23T02:21:31.459Z,0
2023-01-23T02:22:31.425Z,0
2023-01-23T02:23:31.410Z,0
2023-01-23T02:24:31.416Z,0
2023-01-23T02:25:31.426Z,0
2023-01-23T02:26:31.409Z,0
2023-01-23T02:27:31.428Z,0
2023-01-23T02:28:31.400Z,0
2023-01-23T02:29:31.422Z,0
2023-01-23T02:30:31.393Z,0
2023-01-23T02:31:31.560Z,0
2023-01-23T02:32:31.398Z,0
2023-01-23T02:33:31.434Z,0
2023-01-23T02:34:31.422Z,0
2023-01-23T02:35:31.463Z,0
2023-01-23T02:36:31.431Z,0
2023-01-23T02:37:31.425Z,0
2023-01-23T02:38:31.509Z,0
2023-01-23T02:39:31.421Z,0
2023-01-23T02:40:31.406Z,0
2023-01-23T02:41:31.429Z,0
2023-01-23T02:42:31.403Z,0
2023-01-23T02:43:31.419Z,0
2023-01-23T02:44:31.419Z,0
2023-01-23T02:45:31.494Z,0
2023-01-23T02:46:31.427Z,0
2023-01-23T02:47:31.413Z,0
2023-01-23T02:48:31.387Z,0
2023-01-23T02:49:31.488Z,0
2023-01-23T02:50:31.441Z,0
2023-01-23T02:51:31.453Z,0
2023-01-23T02:52:31.431Z,0
2023-01-23T02:53:31.434Z,0
2023-01-23T02:54:31.433Z,0
2023-01-23T02:55:31.494Z,0
2023-01-23T02:56:31.404Z,0
2023-01-23T02:57:31.425Z,0
2023-01-23T02:58:31.407Z,0
2023-01-23T02:59:31.461Z,0
2023-01-23T03:00:31.436Z,0
2023-01-23T03:01:31.403Z,0
2023-01-23T03:02:31.463Z,0
2023-01-23T03:03:31.491Z,0
2023-01-23T03:04:31.398Z,0
2023-01-23T03:05:31.412Z,0
2023-01-23T03:06:31.469Z,0
2023-01-23T03:07:31.419Z,0
2023-01-23T03:08:31.379Z,0
2023-01-23T03:09:31.425Z,0
2023-01-23T03:10:31.393Z,0
2023-01-23T03:11:31.462Z,0
2023-01-23T03:12:31.427Z,0
2023-01-23T03:13:31.466Z,0
2023-01-23T03:14:31.425Z,0
2023-01-23T03:15:31.513Z,0
2023-01-23T03:16:31.612Z,0
2023-01-23T03:17:31.549Z,0
2023-01-23T03:18:31.443Z,0
2023-01-23T03:19:31.539Z,0
2023-01-23T03:20:31.448Z,0
2023-01-23T03:21:31.437Z,0
2023-01-23T03:22:31.502Z,0
2023-01-23T03:23:31.425Z,0
2023-01-23T03:24:31.536Z,0
2023-01-23T03:25:31.403Z,0
2023-01-23T03:26:31.399Z,0
2023-01-23T03:27:31.571Z,0
2023-01-23T03:28:31.482Z,0
2023-01-23T03:29:31.519Z,0
2023-01-23T03:30:31.482Z,0
2023-01-23T03:31:31.537Z,0
2023-01-23T03:32:31.377Z,0
2023-01-23T03:33:31.595Z,0
2023-01-23T03:34:31.482Z,0
2023-01-23T03:35:31.534Z,0
2023-01-23T03:36:31.444Z,0
2023-01-23T03:37:31.401Z,0
2023-01-23T03:38:31.506Z,0
2023-01-23T03:39:31.413Z,0
2023-01-23T03:40:31.528Z,0
2023-01-23T03:41:31.531Z,0
2023-01-23T03:42:31.499Z,0
2023-01-23T03:43:31.475Z,0
2023-01-23T03:44:31.509Z,0
2023-01-23T03:45:31.558Z,0
2023-01-23T03:46:31.544Z,0
2023-01-23T03:47:31.591Z,0
2023-01-23T03:48:31.530Z,0
2023-01-23T03:49:31.469Z,0
2023-01-23T03:50:31.392Z,0
2023-01-23T03:51:31.405Z,0
2023-01-23T03:52:31.418Z,0
2023-01-23T03:53:31.420Z,0
2023-01-23T03:54:31.441Z,0
2023-01-23T03:55:31.418Z,0
2023-01-23T03:56:31.382Z,0
2023-01-23T03:57:31.435Z,0
2023-01-23T03:58:31.456Z,0
2023-01-23T03:59:31.442Z,0
2023-01-23T04:00:31.397Z,0
2023-01-23T04:01:31.400Z,0
2023-01-23T04:02:31.398Z,0
2023-01-23T04:03:31.401Z,0
2023-01-23T04:04:31.373Z,0
2023-01-23T04:05:31.590Z,0
2023-01-23T04:06:31.411Z,0
2023-01-23T04:07:31.398Z,0
2023-01-23T04:08:31.410Z,0
2023-01-23T04:09:31.440Z,0
2023-01-23T04:10:31.381Z,0
2023-01-23T04:11:31.407Z,0
2023-01-23T04:12:31.339Z,0
2023-01-23T04:13:31.413Z,0
2023-01-23T04:14:31.420Z,0
2023-01-23T04:15:31.395Z,0
2023-01-23T04:16:31.440Z,0
2023-01-23T04:17:31.407Z,0
2023-01-23T04:18:31.401Z,0
2023-01-23T04:19:31.374Z,0
2023-01-23T04:20:31.393Z,0
2023-01-23T04:21:31.426Z,0
2023-01-23T04:22:31.411Z,0
2023-01-23T04:23:31.387Z,0
2023-01-23T04:24:31.392Z,0
2023-01-23T04:25:31.427Z,0
2023-01-23T04:26:31.448Z,0
2023-01-23T04:27:31.410Z,0
2023-01-23T04:28:31.385Z,0
2023-01-23T04:29:31.400Z,0
2023-01-23T04:30:31.468Z,0
2023-01-23T04:31:31.628Z,0
2023-01-23T04:32:31.391Z,0
2023-01-23T04:33:31.423Z,0
2023-01-23T04:34:31.430Z,0
2023-01-23T04:35:31.430Z,0
2023-01-23T04:36:31.409Z,0
2023-01-23T04:37:31.395Z,0
2023-01-23T04:38:31.405Z,0
2023-01-23T04:39:31.390Z,0
2023-01-23T04:40:31.461Z,0
2023-01-23T04:41:31.409Z,0
2023-01-23T04:42:31.421Z,0
2023-01-23T04:43:31.395Z,0
2023-01-23T04:44:31.397Z,0
2023-01-23T04:45:31.483Z,0
2023-01-23T04:46:31.413Z,0
2023-01-23T04:47:31.460Z,0
2023-01-23T04:48:31.390Z,0
2023-01-23T04:49:31.408Z,0
2023-01-23T04:50:31.402Z,0
2023-01-23T04:51:31.399Z,0
2023-01-23T04:52:31.404Z,0
2023-01-23T04:53:31.402Z,0
2023-01-23T04:54:31.479Z,0
2023-01-23T04:55:31.360Z,0
2023-01-23T04:56:31.391Z,0
2023-01-23T04:57:31.408Z,0
2023-01-23T04:58:31.427Z,0
2023-01-23T04:59:31.390Z,0
2023-01-23T05:00:31.363Z,0
2023-01-23T05:01:31.410Z,0
2023-01-23T05:02:31.468Z,0
2023-01-23T05:03:31.422Z,0
2023-01-23T05:04:31.404Z,0
2023-01-23T05:05:31.477Z,0
2023-01-23T05:06:31.407Z,0
2023-01-23T05:07:31.382Z,0
2023-01-23T05:08:31.406Z,0
2023-01-23T05:09:31.428Z,0
2023-01-23T05:10:31.395Z,0
2023-01-23T05:11:31.539Z,0
2023-01-23T05:12:31.393Z,0
2023-01-23T05:13:31.409Z,0
2023-01-23T05:14:31.395Z,0
2023-01-23T05:15:31.478Z,0
2023-01-23T05:16:31.403Z,0
2023-01-23T05:17:31.379Z,0
2023-01-23T05:18:31.397Z,0
2023-01-23T05:19:31.406Z,0
2023-01-23T05:20:31.428Z,0
2023-01-23T05:21:31.418Z,0
2023-01-23T05:22:31.470Z,0
2023-01-23T05:23:31.372Z,0
2023-01-23T05:24:31.439Z,0
2023-01-23T05:25:31.403Z,0
2023-01-23T05:26:31.374Z,0
2023-01-23T05:27:31.399Z,0
2023-01-23T05:28:31.406Z,0
2023-01-23T05:29:31.440Z,0
2023-01-23T05:30:31.485Z,0
2023-01-23T05:31:31.565Z,0
2023-01-23T05:32:31.399Z,0
2023-01-23T05:33:31.431Z,0
2023-01-23T05:34:31.366Z,0
2023-01-23T05:35:31.358Z,0
2023-01-23T05:36:31.417Z,0
2023-01-23T05:37:31.398Z,0
2023-01-23T05:38:31.398Z,0
2023-01-23T05:39:31.441Z,0
2023-01-23T05:40:31.412Z,0
2023-01-23T05:41:31.421Z,0
2023-01-23T05:42:31.391Z,0
2023-01-23T05:43:31.379Z,0
2023-01-23T05:44:31.416Z,0
2023-01-23T05:45:31.413Z,0
2023-01-23T05:46:31.446Z,0
2023-01-23T05:47:31.515Z,0
2023-01-23T05:48:31.467Z,0
2023-01-23T05:49:31.415Z,0
2023-01-23T05:50:33.705Z,0
2023-01-23T05:51:31.420Z,0
2023-01-23T05:52:31.373Z,0
2023-01-23T05:53:31.416Z,0
2023-01-23T05:54:31.397Z,0
2023-01-23T05:55:31.402Z,0
2023-01-23T05:56:31.399Z,0
2023-01-23T05:57:31.398Z,0
2023-01-23T05:58:31.403Z,0
2023-01-23T05:59:31.407Z,0
2023-01-23T06:00:31.438Z,0
2023-01-23T06:01:31.414Z,0
2023-01-23T06:02:31.449Z,0
2023-01-23T06:03:31.471Z,0
2023-01-23T06:04:31.407Z,0
2023-01-23T06:05:31.407Z,0
2023-01-23T06:06:31.405Z,0
2023-01-23T06:07:31.383Z,0
2023-01-23T06:08:31.405Z,0
2023-01-23T06:09:31.426Z,0
2023-01-23T06:10:31.375Z,0
2023-01-23T06:11:31.354Z,0
2023-01-23T06:12:31.405Z,0
2023-01-23T06:13:31.385Z,0
2023-01-23T06:14:31.417Z,0
2023-01-23T06:15:31.506Z,0
2023-01-23T06:16:31.390Z,0
2023-01-23T06:17:31.415Z,0
2023-01-23T06:18:31.440Z,0
2023-01-23T06:19:31.396Z,0
2023-01-23T06:20:31.417Z,0
2023-01-23T06:21:31.381Z,0
2023-01-23T06:22:31.585Z,0
2023-01-23T06:23:31.382Z,0
2023-01-23T06:24:31.402Z,0
2023-01-23T06:25:31.485Z,0
2023-01-23T06:26:31.413Z,0
2023-01-23T06:27:31.392Z,0
2023-01-23T06:28:31.377Z,0
2023-01-23T06:29:31.371Z,0
2023-01-23T06:30:31.501Z,0
2023-01-23T06:31:31.505Z,0
2023-01-23T06:32:31.404Z,0
2023-01-23T06:33:31.402Z,0
2023-01-23T06:34:31.426Z,0
2023-01-23T06:35:31.439Z,0
2023-01-23T06:36:31.394Z,0
2023-01-23T06:37:31.365Z,0
2023-01-23T06:38:31.407Z,0
2023-01-23T06:39:31.380Z,0
2023-01-23T06:40:31.415Z,0
2023-01-23T06:41:31.380Z,0
2023-01-23T06:42:31.392Z,0
2023-01-23T06:43:32.381Z,0
2023-01-23T06:44:31.423Z,0
2023-01-23T06:45:31.387Z,0
2023-01-23T06:46:31.531Z,0
2023-01-23T06:47:31.377Z,0
2023-01-23T06:48:31.383Z,0
2023-01-23T06:49:31.356Z,0
2023-01-23T06:50:31.422Z,0
2023-01-23T06:51:31.369Z,0
2023-01-23T06:52:31.394Z,0
2023-01-23T06:53:31.370Z,0
2023-01-23T06:54:31.433Z,0
2023-01-23T06:55:31.367Z,0
2023-01-23T06:56:31.390Z,0
2023-01-23T06:57:31.363Z,0
2023-01-23T06:58:31.395Z,0
2023-01-23T06:59:31.383Z,0
2023-01-23T07:00:31.565Z,0
2023-01-23T07:01:31.522Z,0
2023-01-23T07:02:31.467Z,0
2023-01-23T07:03:31.392Z,0
2023-01-23T07:04:31.496Z,0
2023-01-23T07:05:31.446Z,0
2023-01-23T07:06:31.462Z,0
2023-01-23T07:07:31.368Z,0
2023-01-23T07:08:31.373Z,0
2023-01-23T07:09:31.402Z,0
2023-01-23T07:10:31.390Z,0
2023-01-23T07:11:31.408Z,0
2023-01-23T07:12:31.465Z,0
2023-01-23T07:13:31.409Z,0
2023-01-23T07:14:31.407Z,0
2023-01-23T07:15:31.412Z,0
2023-01-23T07:16:31.448Z,0
2023-01-23T07:17:31.389Z,0
2023-01-23T07:18:31.396Z,0
2023-01-23T07:19:31.436Z,0
2023-01-23T07:20:31.393Z,0
2023-01-23T07:21:31.427Z,0
2023-01-23T07:22:31.676Z,0
2023-01-23T07:23:31.400Z,0
2023-01-23T07:24:31.364Z,0
2023-01-23T07:25:31.363Z,0
2023-01-23T07:26:31.434Z,0
2023-01-23T07:27:31.385Z,0
2023-01-23T07:28:31.413Z,0
2023-01-23T07:29:31.376Z,0
2023-01-23T07:30:31.439Z,0
2023-01-23T07:31:31.447Z,0.85
2023-01-23T07:32:31.372Z,0
2023-01-23T07:33:31.370Z,0
2023-01-23T07:34:31.380Z,0
2023-01-23T07:35:31.417Z,0
2023-01-23T07:36:31.402Z,0.36
2023-01-23T07:37:31.381Z,0.85
2023-01-23T07:38:31.398Z,0.85
2023-01-23T07:39:31.389Z,0
2023-01-23T07:40:31.366Z,0.36
2023-01-23T07:41:31.345Z,0.85
2023-01-23T07:42:31.428Z,0.85
2023-01-23T07:43:31.381Z,1.22
2023-01-23T07:44:31.397Z,1.71
2023-01-23T07:45:31.362Z,2.08
2023-01-23T07:46:31.421Z,2.57
2023-01-23T07:47:31.413Z,1.71
2023-01-23T07:48:31.378Z,2.08
2023-01-23T07:49:31.419Z,2.94
2023-01-23T07:50:31.414Z,2.57
2023-01-23T07:51:31.389Z,2.08
2023-01-23T07:52:31.507Z,1.71
2023-01-23T07:53:31.360Z,2.57
2023-01-23T07:54:31.394Z,2.08
2023-01-23T07:55:31.389Z,2.08
2023-01-23T07:56:31.453Z,2.08
2023-01-23T07:57:31.381Z,2.94
2023-01-23T07:58:31.423Z,2.57
2023-01-23T07:59:31.359Z,3.79
2023-01-23T08:00:32.190Z,3.43
2023-01-23T08:01:31.396Z,3.79
2023-01-23T08:02:31.365Z,3.79
2023-01-23T08:03:31.408Z,3.43
2023-01-23T08:04:31.416Z,3.79
2023-01-23T08:05:31.397Z,4.28
2023-01-23T08:06:31.444Z,3.43
2023-01-23T08:07:31.379Z,4.28
2023-01-23T08:08:31.378Z,3.79
2023-01-23T08:09:31.380Z,3.79
2023-01-23T08:10:31.370Z,4.28
2023-01-23T08:11:32.917Z,3.79
2023-01-23T08:12:31.365Z,2.94
2023-01-23T08:13:31.385Z,5.14
2023-01-23T08:14:31.357Z,4.28
2023-01-23T08:15:31.368Z,3.43
2023-01-23T08:16:31.482Z,5.14
2023-01-23T08:17:31.385Z,3.79
2023-01-23T08:18:31.390Z,4.28
2023-01-23T08:19:31.384Z,4.77
2023-01-23T08:20:31.442Z,5.14
2023-01-23T08:21:31.360Z,5.63
2023-01-23T08:22:31.394Z,5.63
2023-01-23T08:23:31.379Z,6.85
2023-01-23T08:24:31.391Z,6.85
2023-01-23T08:25:31.393Z,7.34
2023-01-23T08:26:31.363Z,8.19
2023-01-23T08:27:31.392Z,7.7
2023-01-23T08:28:31.397Z,7.7
2023-01-23T08:29:31.369Z,8.19
2023-01-23T08:30:31.347Z,6.85
2023-01-23T08:31:31.428Z,6.48
2023-01-23T08:32:31.400Z,5.99
2023-01-23T08:33:31.380Z,5.99
2023-01-23T08:34:31.384Z,5.99
2023-01-23T08:35:31.399Z,6.85
2023-01-23T08:36:31.385Z,5.99
2023-01-23T08:37:31.392Z,6.48
2023-01-23T08:38:31.408Z,8.19
2023-01-23T08:39:31.373Z,7.34
2023-01-23T08:40:31.400Z,8.19
2023-01-23T08:41:31.402Z,9.05
2023-01-23T08:42:31.389Z,8.56
2023-01-23T08:43:31.376Z,9.54
2023-01-23T08:44:31.405Z,11.62
2023-01-23T08:45:31.481Z,13.82
2023-01-23T08:46:31.461Z,11.62
2023-01-23T08:47:31.427Z,11.25
2023-01-23T08:48:31.461Z,10.39
2023-01-23T08:49:31.455Z,10.77
2023-01-23T08:50:31.352Z,11.62
2023-01-23T08:51:31.425Z,12.11
2023-01-23T08:52:31.402Z,12.48
2023-01-23T08:53:31.374Z,12.97
2023-01-23T08:54:31.354Z,14.31
2023-01-23T08:55:31.385Z,15.17
2023-01-23T08:56:31.391Z,13.82
2023-01-23T08:57:31.422Z,12.48
2023-01-23T08:58:31.363Z,12.97
2023-01-23T08:59:31.358Z,14.68
2023-01-23T09:00:31.354Z,16.02
2023-01-23T09:01:31.457Z,14.68
2023-01-23T09:02:31.418Z,17.73
2023-01-23T09:03:31.423Z,17.25
2023-01-23T09:04:31.382Z,16.02
2023-01-23T09:05:31.374Z,14.31
2023-01-23T09:06:31.378Z,13.82
2023-01-23T09:07:31.364Z,13.82
2023-01-23T09:08:31.458Z,13.82
2023-01-23T09:09:31.398Z,12.97
2023-01-23T09:10:31.387Z,13.33
2023-01-23T09:11:31.352Z,12.48
2023-01-23T09:12:31.381Z,13.33
2023-01-23T09:13:31.363Z,15.53
2023-01-23T09:14:31.447Z,19.45
2023-01-23T09:15:31.361Z,21.65
2023-01-23T09:16:31.497Z,22.02
2023-01-23T09:17:31.349Z,22.87
2023-01-23T09:18:31.401Z,23.36
2023-01-23T09:19:32.383Z,21.16
2023-01-23T09:20:31.368Z,23.85
2023-01-23T09:21:31.355Z,27.65
2023-01-23T09:22:31.454Z,29.85
2023-01-23T09:23:31.374Z,29.48
2023-01-23T09:24:31.388Z,26.42
2023-01-23T09:25:31.386Z,24.71
2023-01-23T09:26:31.390Z,22.87
2023-01-23T09:27:31.380Z,26.42
2023-01-23T09:28:31.343Z,29.85
2023-01-23T09:29:31.398Z,32.9
2023-01-23T09:30:31.394Z,35.11
2023-01-23T09:31:31.441Z,30.7
2023-01-23T09:32:31.375Z,26.79
2023-01-23T09:33:31.373Z,24.71
2023-01-23T09:34:31.398Z,22.02
2023-01-23T09:35:31.367Z,20.8
2023-01-23T09:36:42.487Z,21.16
2023-01-23T09:37:31.348Z,22.02
2023-01-23T09:38:31.427Z,21.65
2023-01-23T09:39:31.356Z,19.94
2023-01-23T09:40:31.364Z,20.8
2023-01-23T09:41:31.374Z,22.51
2023-01-23T09:42:31.375Z,22.87
2023-01-23T09:43:31.361Z,22.51
2023-01-23T09:44:31.399Z,21.65
2023-01-23T09:45:31.349Z,21.65
2023-01-23T09:46:31.380Z,21.16
2023-01-23T09:47:31.954Z,20.31
2023-01-23T09:48:31.433Z,21.65
2023-01-23T09:49:31.336Z,24.22
2023-01-23T09:50:31.382Z,24.71
2023-01-23T09:51:31.450Z,24.22
2023-01-23T09:52:31.400Z,22.51
2023-01-23T09:53:31.384Z,19.94
2023-01-23T09:54:31.393Z,21.65
2023-01-23T09:55:31.399Z,22.02
2023-01-23T09:56:31.384Z,22.02
2023-01-23T09:57:31.428Z,21.16
2023-01-23T09:58:31.378Z,21.65
2023-01-23T09:59:31.397Z,21.65
2023-01-23T10:00:31.363Z,21.65
2023-01-23T10:01:31.423Z,21.65
2023-01-23T10:02:31.557Z,20.31
2023-01-23T10:03:31.358Z,22.87
2023-01-23T10:04:31.372Z,23.85
2023-01-23T10:05:31.385Z,28.14
2023-01-23T10:06:31.382Z,37.19
2023-01-23T10:07:31.472Z,33.76
2023-01-23T10:08:31.364Z,40.24
2023-01-23T10:09:31.360Z,44.65
2023-01-23T10:10:31.425Z,46.73
2023-01-23T10:11:31.388Z,43.31
2023-01-23T10:12:31.315Z,39.02
2023-01-23T10:13:31.431Z,39.39
2023-01-23T10:14:31.351Z,44.16
2023-01-23T10:15:31.397Z,39.02
2023-01-23T10:16:44.752Z,35.11
2023-01-23T10:17:31.452Z,31.56
2023-01-23T10:18:31.375Z,38.17
2023-01-23T10:19:31.385Z,36.33
2023-01-23T10:20:31.353Z,33.39
2023-01-23T10:21:31.373Z,35.97
2023-01-23T10:22:31.376Z,38.17
2023-01-23T10:23:31.409Z,34.62
2023-01-23T10:24:39.892Z,26.79
2023-01-23T10:25:31.451Z,28.99
2023-01-23T10:26:31.766Z,27.65
2023-01-23T10:27:31.671Z,26.42
2023-01-23T10:28:31.363Z,25.94
2023-01-23T10:29:31.385Z,27.28
2023-01-23T10:30:31.533Z,22.87
2023-01-23T10:31:31.499Z,23.36
2023-01-23T10:32:31.362Z,24.71
2023-01-23T10:33:31.376Z,23.85
2023-01-23T10:34:31.368Z,22.87
2023-01-23T10:35:31.421Z,23.85
2023-01-23T10:36:42.109Z,24.71
2023-01-23T10:37:31.651Z,31.19
2023-01-23T10:38:31.361Z,27.65
2023-01-23T10:39:31.349Z,26.79
2023-01-23T10:40:31.330Z,25.07
2023-01-23T10:41:31.490Z,22.87
2023-01-23T10:42:31.361Z,23.36
2023-01-23T10:43:31.408Z,22.87
2023-01-23T10:44:31.361Z,21.65
2023-01-23T10:45:31.446Z,20.8
2023-01-23T10:46:31.443Z,17.25
2023-01-23T10:47:33.247Z,18.11
2023-01-23T10:48:31.348Z,17.73
2023-01-23T10:49:31.399Z,17.73
2023-01-23T10:50:31.345Z,18.11
2023-01-23T10:51:31.452Z,17.25
2023-01-23T10:52:31.388Z,18.6
2023-01-23T10:53:31.358Z,19.08
2023-01-23T10:54:33.249Z,20.8
2023-01-23T10:55:31.380Z,20.8
2023-01-23T10:56:31.380Z,20.31
2023-01-23T10:57:31.406Z,22.02
2023-01-23T10:58:31.400Z,23.36
2023-01-23T10:59:31.429Z,24.71
2023-01-23T11:00:31.366Z,22.87
2023-01-23T11:01:31.447Z,21.65
2023-01-23T11:02:31.516Z,22.51
2023-01-23T11:03:31.395Z,19.45
2023-01-23T11:04:31.370Z,19.94
2023-01-23T11:05:33.680Z,20.8
2023-01-23T11:06:31.326Z,18.6
2023-01-23T11:07:31.423Z,22.02
2023-01-23T11:08:31.336Z,21.65
2023-01-23T11:09:31.387Z,21.65
2023-01-23T11:10:31.377Z,20.8
2023-01-23T11:11:31.415Z,21.65
2023-01-23T11:12:31.331Z,20.31
2023-01-23T11:13:31.368Z,20.31
2023-01-23T11:14:31.465Z,19.45
2023-01-23T11:15:31.543Z,19.45
2023-01-23T11:16:31.321Z,19.08
2023-01-23T11:17:31.345Z,22.02
2023-01-23T11:18:31.572Z,20.8
2023-01-23T11:19:31.380Z,22.51
2023-01-23T11:20:31.380Z,21.65
2023-01-23T11:21:31.491Z,22.87
2023-01-23T11:22:31.383Z,24.71
2023-01-23T11:23:31.342Z,27.28
2023-01-23T11:24:39.781Z,25.07
2023-01-23T11:25:31.374Z,23.85
2023-01-23T11:26:31.395Z,25.07
2023-01-23T11:27:31.435Z,22.87
2023-01-23T11:28:31.372Z,21.65
2023-01-23T11:29:31.381Z,22.51
2023-01-23T11:30:31.432Z,20.31
2023-01-23T11:31:31.496Z,23.36
2023-01-23T11:32:31.606Z,23.85
2023-01-23T11:33:31.397Z,22.02
2023-01-23T11:34:31.366Z,22.51
2023-01-23T11:35:31.370Z,21.16
2023-01-23T11:36:31.370Z,21.65
2023-01-23T11:37:31.431Z,24.22
2023-01-23T11:38:51.399Z,22.02
2023-01-23T11:39:45.809Z,23.36
2023-01-23T11:40:49.808Z,22.87
2023-01-23T11:41:53.830Z,25.94
2023-01-23T11:42:57.823Z,22.51
2023-01-23T11:44:01.885Z,24.71
2023-01-23T11:45:05.792Z,22.02
2023-01-23T11:46:09.846Z,22.51
2023-01-23T11:47:13.895Z,21.16
2023-01-23T11:48:17.847Z,22.87
2023-01-23T11:49:21.827Z,25.07
2023-01-23T11:50:25.792Z,25.94
2023-01-23T11:51:29.937Z,26.79
2023-01-23T11:52:31.320Z,26.79
2023-01-23T11:53:41.799Z,25.94
2023-01-23T11:54:31.380Z,25.56
2023-01-23T11:55:32.779Z,23.36
2023-01-23T11:56:31.349Z,23.36
2023-01-23T11:57:31.337Z,20.8
2023-01-23T11:58:32.123Z,19.94
2023-01-23T11:59:31.342Z,18.6
2023-01-23T12:00:31.367Z,21.65
2023-01-23T12:01:31.351Z,23.85
2023-01-23T12:02:31.443Z,22.02
2023-01-23T12:03:31.447Z,20.8
2023-01-23T12:04:31.461Z,20.8
2023-01-23T12:05:31.343Z,17.73
2023-01-23T12:06:31.356Z,18.6
2023-01-23T12:07:31.359Z,17.73
2023-01-23T12:08:31.316Z,18.11
2023-01-23T12:09:31.390Z,17.73
2023-01-23T12:10:31.349Z,19.08
2023-01-23T12:11:31.352Z,19.08
2023-01-23T12:12:31.313Z,18.11
2023-01-23T12:13:31.341Z,18.11
2023-01-23T12:14:31.427Z,17.73
2023-01-23T12:15:31.328Z,16.02
2023-01-23T12:16:31.528Z,15.53
2023-01-23T12:17:31.598Z,15.53
2023-01-23T12:18:31.355Z,15.53
2023-01-23T12:19:31.341Z,16.39
2023-01-23T12:20:31.361Z,14.68
2023-01-23T12:21:31.356Z,15.53
2023-01-23T12:22:31.364Z,13.33
2023-01-23T12:23:31.345Z,13.82
2023-01-23T12:24:31.357Z,14.31
2023-01-23T12:25:31.369Z,14.68
2023-01-23T12:26:31.363Z,14.68
2023-01-23T12:27:31.345Z,14.31
2023-01-23T12:28:31.417Z,12.97
2023-01-23T12:29:31.345Z,12.97
2023-01-23T12:30:31.353Z,12.97
2023-01-23T12:31:31.480Z,14.68
2023-01-23T12:32:31.393Z,13.82
2023-01-23T12:33:31.376Z,14.31
2023-01-23T12:34:31.347Z,15.17
2023-01-23T12:35:31.367Z,14.31
2023-01-23T12:36:31.386Z,12.48
2023-01-23T12:37:31.434Z,13.82
2023-01-23T12:38:31.340Z,13.33
2023-01-23T12:39:31.332Z,12.97
2023-01-23T12:40:31.402Z,13.82
2023-01-23T12:41:31.348Z,15.53
2023-01-23T12:42:31.395Z,15.53
2023-01-23T12:43:31.328Z,14.31
2023-01-23T12:44:31.354Z,13.33
2023-01-23T12:45:31.344Z,13.33
2023-01-23T12:46:31.392Z,14.31
2023-01-23T12:47:31.327Z,13.82
2023-01-23T12:48:31.353Z,14.68
2023-01-23T12:49:31.629Z,14.68
2023-01-23T12:50:31.410Z,14.68
2023-01-23T12:51:31.444Z,12.48
2023-01-23T12:52:31.379Z,13.82
2023-01-23T12:53:31.329Z,14.31
2023-01-23T12:54:31.365Z,13.33
2023-01-23T12:55:31.360Z,13.82
2023-01-23T12:56:31.388Z,13.82
2023-01-23T12:57:45.888Z,13.82
2023-01-23T12:58:31.430Z,12.97
2023-01-23T12:59:31.337Z,12.97
2023-01-23T13:00:31.455Z,12.97
2023-01-23T13:01:31.294Z,13.33
2023-01-23T13:02:31.403Z,14.68
2023-01-23T13:03:37.446Z,16.39
2023-01-23T13:04:31.365Z,19.94
2023-01-23T13:05:31.331Z,19.45
2023-01-23T13:06:31.347Z,16.02
2023-01-23T13:07:32.011Z,14.31
2023-01-23T13:08:38.094Z,15.17
2023-01-23T13:09:31.365Z,16.88
2023-01-23T13:10:31.522Z,14.31
2023-01-23T13:11:31.501Z,13.33
2023-01-23T13:12:31.349Z,15.53
2023-01-23T13:13:31.332Z,20.8
2023-01-23T13:14:36.797Z,19.45
2023-01-23T13:15:39.912Z,18.6
2023-01-23T13:16:31.351Z,16.39
2023-01-23T13:17:31.332Z,16.39
2023-01-23T13:18:31.724Z,15.53
2023-01-23T13:19:31.349Z,15.17
2023-01-23T13:20:31.337Z,15.17
2023-01-23T13:21:31.397Z,16.39
2023-01-23T13:22:32.662Z,17.25
2023-01-23T13:23:31.343Z,17.73
2023-01-23T13:24:31.358Z,14.68
2023-01-23T13:25:34.756Z,12.48
2023-01-23T13:26:31.401Z,11.25
2023-01-23T13:27:31.398Z,11.25
2023-01-23T13:28:44.206Z,10.39
2023-01-23T13:29:31.370Z,11.62
2023-01-23T13:30:31.344Z,13.33
2023-01-23T13:31:31.526Z,12.11
2023-01-23T13:32:31.449Z,11.62
2023-01-23T13:33:31.338Z,11.25
2023-01-23T13:34:31.349Z,8.19
2023-01-23T13:35:31.357Z,7.34
2023-01-23T13:36:31.357Z,7.7
2023-01-23T13:37:31.344Z,8.56
2023-01-23T13:38:31.351Z,9.91
2023-01-23T13:39:31.354Z,11.62
2023-01-23T13:40:31.319Z,12.48
2023-01-23T13:41:31.397Z,9.54
2023-01-23T13:42:31.408Z,9.54
2023-01-23T13:43:31.346Z,10.77
2023-01-23T13:44:40.973Z,12.48
2023-01-23T13:45:31.504Z,10.77
2023-01-23T13:46:31.348Z,11.25
2023-01-23T14:20:31.448Z,0.36
2023-01-23T14:21:40.778Z,1.22
2023-01-23T14:22:31.307Z,1.22
2023-01-23T14:23:31.390Z,1.71
2023-01-23T14:24:31.356Z,0.36
2023-01-23T14:25:31.348Z,0.85
2023-01-23T14:26:31.294Z,0.85
2023-01-23T14:27:32.419Z,0.36
2023-01-23T14:28:31.319Z,1.22
2023-01-23T14:29:31.335Z,0.36